createdAt,value
2018-03-07T00:00:27.554Z,45.63
2018-03-07T00:01:32.029Z,46.75
2018-03-07T00:02:36.473Z,50.63
2018-03-07T00:03:40.929Z,46.00
2018-03-07T00:04:45.369Z,48.35
2018-03-07T00:05:50.592Z,42.22
2018-03-07T00:06:55.091Z,46.20
2018-03-07T00:07:59.535Z,45.38
2018-03-07T00:09:03.958Z,46.53
2018-03-07T00:10:08.407Z,43.58
2018-03-07T00:11:12.869Z,48.00
2018-03-07T00:12:18.110Z,48.50
2018-03-07T00:13:22.585Z,46.53
2018-03-07T00:14:27.038Z,44.35
2018-03-07T00:15:31.489Z,46.15
2018-03-07T00:16:35.936Z,47.15
2018-03-07T00:17:41.247Z,47.45
2018-03-07T00:18:45.685Z,43.80
2018-03-07T00:19:50.896Z,46.90
2018-03-07T00:20:55.349Z,46.55
2018-03-07T00:21:59.802Z,46.83
2018-03-07T00:23:04.265Z,43.80
2018-03-07T00:24:08.711Z,47.58
2018-03-07T00:25:13.169Z,45.28
2018-03-07T00:26:17.629Z,48.15
2018-03-07T00:27:22.075Z,44.83
2018-03-07T00:28:26.537Z,47.47
2018-03-07T00:29:30.983Z,47.10
2018-03-07T00:30:35.426Z,46.88
2018-03-07T00:31:39.878Z,50.28
2018-03-07T00:32:44.333Z,47.90
2018-03-07T00:33:49.581Z,50.53
2018-03-07T00:34:54.212Z,45.63
2018-03-07T00:35:58.449Z,49.15
2018-03-07T00:37:02.901Z,46.55
2018-03-07T00:38:08.102Z,45.30
2018-03-07T00:39:12.599Z,48.67
2018-03-07T00:40:17.052Z,51.17
2018-03-07T00:41:22.263Z,48.60
2018-03-07T00:42:27.478Z,48.90
2018-03-07T00:43:31.941Z,49.08
2018-03-07T00:44:36.401Z,47.03
2018-03-07T00:45:40.854Z,50.97
2018-03-07T00:46:45.303Z,48.67
2018-03-07T00:47:49.750Z,49.15
2018-03-07T00:48:54.969Z,46.72
2018-03-07T00:49:59.420Z,54.22
2018-03-07T00:51:03.864Z,51.75
2018-03-07T00:52:08.327Z,53.08
2018-03-07T00:53:13.553Z,46.33
2018-03-07T00:54:18.765Z,52.85
2018-03-07T00:55:23.214Z,51.58
2018-03-07T00:56:27.678Z,48.35
2018-03-07T00:57:32.112Z,51.03
2018-03-07T00:58:37.323Z,50.88
2018-03-07T00:59:41.771Z,47.60
2018-03-07T01:00:46.234Z,51.37
2018-03-07T01:01:50.845Z,49.20
2018-03-07T01:02:55.289Z,50.90
2018-03-07T01:04:00.503Z,52.03
2018-03-07T01:05:04.958Z,49.65
2018-03-07T01:06:09.446Z,51.42
2018-03-07T01:07:14.685Z,48.80
2018-03-07T01:08:19.135Z,51.25
2018-03-07T01:09:23.589Z,49.83
2018-03-07T01:10:28.845Z,48.87
2018-03-07T01:11:33.326Z,48.35
2018-03-07T01:12:37.765Z,49.55
2018-03-07T01:13:42.217Z,48.05
2018-03-07T01:14:46.666Z,48.10
2018-03-07T01:15:51.118Z,51.50
2018-03-07T01:16:55.594Z,48.28
2018-03-07T01:18:00.807Z,51.40
2018-03-07T01:19:06.146Z,50.92
2018-03-07T01:20:10.585Z,47.65
2018-03-07T01:21:15.034Z,47.03
2018-03-07T01:22:19.494Z,44.67
2018-03-07T01:23:23.949Z,46.97
2018-03-07T01:24:28.400Z,52.10
2018-03-07T01:25:32.519Z,54.50
2018-03-07T01:26:36.970Z,48.95
2018-03-07T01:27:41.442Z,45.88
2018-03-07T01:28:45.894Z,45.45
2018-03-07T01:29:50.350Z,47.13
2018-03-07T01:30:55.565Z,47.22
2018-03-07T01:32:00.009Z,46.35
2018-03-07T01:33:04.474Z,45.95
2018-03-07T01:34:08.926Z,48.20
2018-03-07T01:35:13.374Z,44.60
2018-03-07T01:36:17.821Z,47.35
2018-03-07T01:37:23.037Z,45.53
2018-03-07T01:38:29.017Z,45.83
2018-03-07T01:39:34.221Z,46.13
2018-03-07T01:40:39.485Z,46.63
2018-03-07T01:41:44.712Z,47.15
2018-03-07T01:42:49.938Z,46.00
2018-03-07T01:43:54.406Z,49.03
2018-03-07T01:44:58.872Z,44.25
2018-03-07T01:46:03.333Z,44.60
2018-03-07T01:47:07.787Z,42.10
2018-03-07T01:48:12.247Z,43.95
2018-03-07T01:49:16.756Z,40.67
2018-03-07T01:50:20.862Z,46.30
2018-03-07T01:52:55.378Z,39.72
2018-03-07T01:53:59.822Z,43.63
2018-03-07T01:55:04.734Z,42.90
2018-03-07T01:56:09.225Z,41.63
2018-03-07T01:57:13.662Z,44.13
2018-03-07T01:58:18.158Z,42.08
2018-03-07T01:59:22.409Z,41.25
2018-03-07T02:00:26.869Z,40.63
2018-03-07T02:01:31.313Z,38.05
2018-03-07T02:02:36.513Z,44.03
2018-03-07T02:03:40.973Z,40.67
2018-03-07T02:04:45.426Z,43.22
2018-03-07T02:05:49.889Z,42.17
2018-03-07T02:06:54.329Z,39.08
2018-03-07T02:07:58.766Z,40.40
2018-03-07T02:09:02.869Z,44.20
2018-03-07T02:10:07.310Z,43.08
2018-03-07T02:11:12.673Z,42.38
2018-03-07T02:12:17.127Z,42.30
2018-03-07T02:13:21.594Z,43.75
2018-03-07T02:14:26.065Z,42.40
2018-03-07T02:15:30.512Z,41.50
2018-03-07T02:16:34.970Z,43.45
2018-03-07T02:17:39.418Z,43.08
2018-03-07T02:18:44.629Z,39.33
2018-03-07T02:19:49.849Z,41.92
2018-03-07T02:20:55.069Z,44.70
2018-03-07T02:21:59.528Z,41.40
2018-03-07T02:23:03.998Z,42.78
2018-03-07T02:24:08.468Z,43.50
2018-03-07T02:25:12.911Z,41.40
2018-03-07T02:26:17.445Z,40.05
2018-03-07T02:27:21.908Z,41.03
2018-03-07T02:28:26.354Z,40.97
2018-03-07T02:29:30.789Z,38.05
2018-03-07T02:30:35.995Z,39.15
2018-03-07T02:31:40.679Z,40.33
2018-03-07T02:32:45.179Z,41.55
2018-03-07T02:33:49.815Z,37.85
2018-03-07T02:34:54.274Z,40.83
2018-03-07T02:35:59.473Z,39.85
2018-03-07T02:37:03.910Z,39.17
2018-03-07T02:38:09.153Z,41.15
2018-03-07T02:39:13.604Z,36.08
2018-03-07T02:40:18.038Z,39.15
2018-03-07T02:41:23.277Z,37.78
2018-03-07T02:42:27.709Z,40.38
2018-03-07T02:43:32.185Z,38.72
2018-03-07T02:44:36.680Z,39.53
2018-03-07T02:45:41.152Z,42.05
2018-03-07T02:46:45.591Z,42.58
2018-03-07T02:47:50.038Z,38.55
2018-03-07T02:48:54.493Z,38.83
2018-03-07T02:49:58.970Z,37.90
2018-03-07T02:51:04.179Z,40.78
2018-03-07T02:52:09.398Z,40.50
2018-03-07T02:53:13.851Z,40.50
2018-03-07T02:54:19.089Z,39.03
2018-03-07T02:55:23.545Z,40.25
2018-03-07T02:56:28.014Z,39.00
2018-03-07T02:57:32.454Z,40.50
2018-03-07T02:58:36.898Z,38.00
2018-03-07T02:59:41.363Z,37.85
2018-03-07T03:00:45.827Z,36.75
2018-03-07T03:01:51.049Z,37.38
2018-03-07T03:02:55.512Z,40.33
2018-03-07T03:03:59.951Z,38.10
2018-03-07T03:05:03.771Z,39.15
2018-03-07T03:06:08.208Z,39.53
2018-03-07T03:07:12.669Z,36.05
2018-03-07T03:08:17.122Z,34.85
2018-03-07T03:09:22.334Z,36.47
2018-03-07T03:10:26.825Z,40.83
2018-03-07T03:11:31.305Z,37.00
2018-03-07T03:12:35.965Z,35.95
2018-03-07T03:13:40.557Z,35.63
2018-03-07T03:14:45.013Z,36.97
2018-03-07T03:15:50.251Z,36.13
2018-03-07T03:16:54.689Z,38.10
2018-03-07T03:17:59.138Z,34.05
2018-03-07T03:19:03.587Z,36.80
2018-03-07T03:20:08.045Z,37.17
2018-03-07T03:21:12.501Z,38.63
2018-03-07T03:22:17.719Z,40.30
2018-03-07T03:23:22.937Z,37.05
2018-03-07T03:24:27.374Z,38.85
2018-03-07T03:25:31.618Z,40.53
2018-03-07T03:26:36.094Z,39.75
2018-03-07T03:27:40.360Z,37.78
2018-03-07T03:28:44.814Z,38.10
2018-03-07T03:29:49.254Z,36.33
2018-03-07T03:30:53.738Z,35.60
2018-03-07T03:31:58.202Z,38.30
2018-03-07T03:33:02.662Z,37.50
2018-03-07T03:34:07.106Z,42.60
2018-03-07T03:35:11.547Z,38.38
2018-03-07T03:36:15.337Z,34.60
2018-03-07T03:37:19.798Z,36.75
2018-03-07T03:38:24.234Z,37.05
2018-03-07T03:39:28.678Z,38.42
2018-03-07T03:40:33.130Z,40.33
2018-03-07T03:41:37.574Z,38.15
2018-03-07T03:42:42.043Z,36.08
2018-03-07T03:43:46.629Z,40.33
2018-03-07T03:44:51.076Z,38.17
2018-03-07T03:45:55.522Z,44.22
2018-03-07T03:47:00.032Z,38.80
2018-03-07T03:48:05.260Z,40.85
2018-03-07T03:49:09.705Z,37.38
2018-03-07T03:50:14.929Z,40.22
2018-03-07T03:51:19.370Z,39.42
2018-03-07T03:52:23.806Z,38.67
2018-03-07T03:53:28.263Z,41.85
2018-03-07T03:54:33.469Z,41.15
2018-03-07T03:55:37.901Z,38.35
2018-03-07T03:56:43.106Z,38.92
2018-03-07T03:57:47.612Z,39.55
2018-03-07T03:58:52.078Z,37.42
2018-03-07T03:59:56.521Z,38.92
2018-03-07T04:01:00.978Z,42.30
2018-03-07T04:02:06.218Z,38.35
2018-03-07T04:03:11.437Z,41.42
2018-03-07T04:04:16.684Z,41.13
2018-03-07T04:05:21.903Z,41.42
2018-03-07T04:06:27.118Z,40.47
2018-03-07T04:07:31.582Z,40.50
2018-03-07T04:08:36.023Z,40.95
2018-03-07T04:09:40.489Z,42.60
2018-03-07T04:10:44.943Z,43.17
2018-03-07T04:11:49.382Z,40.40
2018-03-07T04:12:54.589Z,40.45
2018-03-07T04:13:59.046Z,40.00
2018-03-07T04:15:04.277Z,39.85
2018-03-07T04:16:08.721Z,39.53
2018-03-07T04:17:13.224Z,44.17
2018-03-07T04:18:17.679Z,40.05
2018-03-07T04:19:22.138Z,42.70
2018-03-07T04:20:26.597Z,42.17
2018-03-07T04:21:31.035Z,44.92
2018-03-07T04:22:35.486Z,38.58
2018-03-07T04:23:39.926Z,43.72
2018-03-07T04:24:44.387Z,41.40
2018-03-07T04:25:48.853Z,43.92
2018-03-07T04:26:53.335Z,43.33
2018-03-07T04:27:57.761Z,41.95
2018-03-07T04:29:02.206Z,42.28
2018-03-07T04:30:07.412Z,38.63
2018-03-07T04:31:11.879Z,41.00
2018-03-07T04:32:16.313Z,38.17
2018-03-07T04:33:20.763Z,39.22
2018-03-07T04:34:26.005Z,41.55
2018-03-07T04:35:30.628Z,40.05
2018-03-07T04:36:35.178Z,42.38
2018-03-07T04:37:39.614Z,42.15
2018-03-07T04:38:44.830Z,43.70
2018-03-07T04:39:50.058Z,39.25
2018-03-07T04:40:54.490Z,44.00
2018-03-07T04:41:59.722Z,44.55
2018-03-07T04:43:04.937Z,44.75
2018-03-07T04:44:09.384Z,43.90
2018-03-07T04:45:13.825Z,43.10
2018-03-07T04:46:18.342Z,42.55
2018-03-07T04:47:22.810Z,42.50
2018-03-07T04:48:27.246Z,39.10
2018-03-07T04:49:31.691Z,44.60
2018-03-07T04:50:36.145Z,38.42
2018-03-07T04:51:40.577Z,44.55
2018-03-07T04:52:45.819Z,40.75
2018-03-07T04:53:50.262Z,41.75
2018-03-07T04:54:54.701Z,47.67
2018-03-07T04:55:59.146Z,41.85
2018-03-07T04:57:03.598Z,46.22
2018-03-07T04:58:09.894Z,45.45
2018-03-07T04:59:14.325Z,43.92
2018-03-07T05:00:18.778Z,45.28
2018-03-07T05:01:23.991Z,44.72
2018-03-07T05:02:28.438Z,53.85
2018-03-07T05:03:32.913Z,44.33
2018-03-07T05:04:37.368Z,46.28
2018-03-07T05:05:41.823Z,44.15
2018-03-07T05:06:46.270Z,48.15
2018-03-07T05:07:51.495Z,47.47
2018-03-07T05:08:56.736Z,46.13
2018-03-07T05:10:01.211Z,49.00
2018-03-07T05:11:05.654Z,47.20
2018-03-07T05:12:10.110Z,45.88
2018-03-07T05:13:14.572Z,43.42
2018-03-07T05:14:20.003Z,48.95
2018-03-07T05:15:25.215Z,49.83
2018-03-07T05:16:29.655Z,43.30
2018-03-07T05:17:34.107Z,49.95
2018-03-07T05:18:38.562Z,48.42
2018-03-07T05:19:43.803Z,48.70
2018-03-07T05:20:48.506Z,48.72
2018-03-07T05:21:54.070Z,48.90
2018-03-07T05:22:58.514Z,48.15
2018-03-07T05:24:02.953Z,50.65
2018-03-07T05:25:07.422Z,51.35
2018-03-07T05:26:11.874Z,46.15
2018-03-07T05:27:16.320Z,47.05
2018-03-07T05:28:20.792Z,47.92
2018-03-07T05:29:25.244Z,46.75
2018-03-07T05:30:29.710Z,46.65
2018-03-07T05:31:34.943Z,46.80
2018-03-07T05:32:39.386Z,44.60
2018-03-07T05:33:43.837Z,45.63
2018-03-07T05:34:48.282Z,45.28
2018-03-07T05:35:52.757Z,45.53
2018-03-07T05:36:58.854Z,47.72
2018-03-07T05:38:04.088Z,48.13
2018-03-07T05:39:08.568Z,45.17
2018-03-07T05:40:13.010Z,48.78
2018-03-07T05:41:18.253Z,46.15
2018-03-07T05:42:22.711Z,50.60
2018-03-07T05:43:27.155Z,46.42
2018-03-07T05:44:32.364Z,42.83
2018-03-07T05:45:36.808Z,50.53
2018-03-07T05:46:41.274Z,46.75
2018-03-07T05:47:45.785Z,47.03
2018-03-07T05:48:50.214Z,49.30
2018-03-07T05:49:54.674Z,50.55
2018-03-07T05:50:59.129Z,47.67
2018-03-07T05:52:03.591Z,51.92
2018-03-07T05:53:08.036Z,55.17
2018-03-07T05:54:12.506Z,54.95
2018-03-07T05:55:16.946Z,56.28
2018-03-07T05:56:21.450Z,57.75
2018-03-07T05:57:25.990Z,56.65
2018-03-07T05:58:30.428Z,52.60
2018-03-07T05:59:34.615Z,59.43
2018-03-07T06:00:39.065Z,55.67
2018-03-07T06:01:43.514Z,59.25
2018-03-07T06:02:48.043Z,58.50
2018-03-07T06:03:52.482Z,60.83
2018-03-07T06:04:56.961Z,57.05
2018-03-07T06:06:01.461Z,51.35
2018-03-07T06:07:06.038Z,54.10
2018-03-07T06:08:11.291Z,55.42
2018-03-07T06:09:16.531Z,56.35
2018-03-07T06:10:21.325Z,56.53
2018-03-07T06:11:25.821Z,57.45
2018-03-07T06:12:31.040Z,59.78
2018-03-07T06:13:36.285Z,63.75
2018-03-07T06:14:40.730Z,54.95
2018-03-07T06:15:45.178Z,57.13
2018-03-07T06:16:49.633Z,61.08
2018-03-07T06:17:54.086Z,62.72
2018-03-07T06:18:58.550Z,60.10
2018-03-07T06:20:03.032Z,63.50
2018-03-07T06:21:08.250Z,68.60
2018-03-07T06:22:12.697Z,65.07
2018-03-07T06:23:18.053Z,65.97
2018-03-07T06:24:22.512Z,60.70
2018-03-07T06:25:27.732Z,70.18
2018-03-07T06:26:32.199Z,63.97
2018-03-07T06:27:36.649Z,62.85
2018-03-07T06:28:40.891Z,68.27
2018-03-07T06:29:47.310Z,61.70
2018-03-07T06:30:52.978Z,63.28
2018-03-07T06:31:57.976Z,62.78
2018-03-07T06:33:02.441Z,67.15
2018-03-07T06:34:06.917Z,66.40
2018-03-07T06:35:11.574Z,67.57
2018-03-07T06:36:16.037Z,63.03
2018-03-07T06:37:21.263Z,63.95
2018-03-07T06:38:26.481Z,70.82
2018-03-07T06:39:30.946Z,62.95
2018-03-07T06:40:35.418Z,64.28
2018-03-07T06:41:40.308Z,61.90
2018-03-07T06:42:44.764Z,68.62
2018-03-07T06:43:49.993Z,62.85
2018-03-07T06:44:54.272Z,68.15
2018-03-07T06:45:58.750Z,62.80
2018-03-07T06:47:03.207Z,64.65
2018-03-07T06:48:08.511Z,64.50
2018-03-07T06:49:12.967Z,63.78
2018-03-07T06:50:17.425Z,65.75
2018-03-07T06:51:21.889Z,63.83
2018-03-07T06:52:26.343Z,70.65
2018-03-07T06:53:30.802Z,62.17
2018-03-07T06:54:36.017Z,69.40
2018-03-07T06:55:40.493Z,64.90
2018-03-07T06:56:45.020Z,62.97
2018-03-07T06:57:49.467Z,61.72
2018-03-07T06:58:54.710Z,61.47
2018-03-07T06:59:59.149Z,63.38
2018-03-07T07:01:03.613Z,64.03
2018-03-07T07:02:08.851Z,69.37
2018-03-07T07:03:13.088Z,61.90
2018-03-07T07:04:17.394Z,65.57
2018-03-07T07:05:21.938Z,67.80
2018-03-07T07:06:26.398Z,60.00
2018-03-07T07:07:30.868Z,59.88
2018-03-07T07:08:35.321Z,63.92
2018-03-07T07:09:39.760Z,67.82
2018-03-07T07:10:44.285Z,66.90
2018-03-07T07:11:48.747Z,65.12
2018-03-07T07:12:54.002Z,58.75
2018-03-07T07:13:58.454Z,65.50
2018-03-07T07:15:02.963Z,66.70
2018-03-07T07:16:08.177Z,62.60
2018-03-07T07:17:12.644Z,63.72
2018-03-07T07:18:17.883Z,65.65
2018-03-07T07:19:22.326Z,66.28
2018-03-07T07:20:26.805Z,63.55
2018-03-07T07:21:31.266Z,69.10
2018-03-07T07:22:35.734Z,64.95
2018-03-07T07:23:40.201Z,72.22
2018-03-07T07:24:45.614Z,67.93
2018-03-07T07:25:50.066Z,67.07
2018-03-07T07:26:55.296Z,65.57
2018-03-07T07:27:59.754Z,66.55
2018-03-07T07:29:04.226Z,64.60
2018-03-07T07:30:08.491Z,72.72
2018-03-07T07:31:12.935Z,71.18
2018-03-07T07:32:18.156Z,67.75
2018-03-07T07:33:23.368Z,66.75
2018-03-07T07:34:28.602Z,68.75
2018-03-07T07:35:33.055Z,70.97
2018-03-07T07:36:37.505Z,69.45
2018-03-07T07:37:41.957Z,68.50
2018-03-07T07:38:46.443Z,69.65
2018-03-07T07:39:50.918Z,72.72
2018-03-07T07:40:55.369Z,68.87
2018-03-07T07:41:59.826Z,73.90
2018-03-07T07:43:04.294Z,69.53
2018-03-07T07:44:09.509Z,67.40
2018-03-07T07:45:13.990Z,70.18
2018-03-07T07:46:18.451Z,74.62
2018-03-07T07:47:23.712Z,67.80
2018-03-07T07:48:29.110Z,63.17
2018-03-07T07:49:33.360Z,70.15
2018-03-07T07:50:37.701Z,73.95
2018-03-07T07:51:41.953Z,71.90
2018-03-07T07:52:46.225Z,71.90
2018-03-07T07:53:51.442Z,73.68
2018-03-07T07:54:55.901Z,68.25
2018-03-07T07:56:00.192Z,68.85
2018-03-07T07:57:05.411Z,66.00
2018-03-07T07:58:10.637Z,70.82
2018-03-07T07:59:15.077Z,71.75
2018-03-07T08:00:19.535Z,72.87
2018-03-07T08:01:24.051Z,79.07
2018-03-07T08:02:28.501Z,70.72
2018-03-07T08:03:33.713Z,70.03
2018-03-07T08:04:38.939Z,71.43
2018-03-07T08:05:43.398Z,70.15
2018-03-07T08:06:47.874Z,73.07
2018-03-07T08:07:53.099Z,72.90
2018-03-07T08:08:58.320Z,75.25
2018-03-07T08:10:02.811Z,70.93
2018-03-07T08:11:07.586Z,70.20
2018-03-07T08:12:12.046Z,69.95
2018-03-07T08:13:16.556Z,71.95
2018-03-07T08:14:20.990Z,73.70
2018-03-07T08:15:25.429Z,74.28
2018-03-07T08:16:29.872Z,74.10
2018-03-07T08:17:34.334Z,74.47
2018-03-07T08:18:39.205Z,77.95
2018-03-07T08:19:43.666Z,80.62
2018-03-07T08:20:48.960Z,74.60
2018-03-07T08:21:53.406Z,68.18
2018-03-07T08:22:58.633Z,72.22
2018-03-07T08:24:03.525Z,72.18
2018-03-07T08:25:08.027Z,68.78
2018-03-07T08:26:12.483Z,67.90
2018-03-07T08:27:17.695Z,74.00
2018-03-07T08:28:22.173Z,68.47
2018-03-07T08:29:26.638Z,65.57
2018-03-07T08:30:31.972Z,73.03
2018-03-07T08:31:37.306Z,63.70
2018-03-07T08:32:41.757Z,61.03
2018-03-07T08:33:46.046Z,65.57
2018-03-07T08:34:50.171Z,55.45
2018-03-07T08:35:54.617Z,57.50
2018-03-07T08:36:59.826Z,54.60
2018-03-07T08:38:04.841Z,54.67
2018-03-07T08:39:09.299Z,54.63
2018-03-07T08:40:14.517Z,53.92
2018-03-07T08:41:19.543Z,56.90
2018-03-07T08:42:24.758Z,60.88
2018-03-07T08:43:29.978Z,63.55
2018-03-07T08:44:34.459Z,62.78
2018-03-07T08:45:38.580Z,59.90
2018-03-07T08:46:43.058Z,61.58
2018-03-07T08:47:47.506Z,59.13
2018-03-07T08:48:51.953Z,57.83
2018-03-07T08:49:57.197Z,69.75
2018-03-07T08:51:01.671Z,64.05
2018-03-07T08:52:07.619Z,59.20
2018-03-07T08:53:12.053Z,54.80
2018-03-07T08:54:16.557Z,63.97
2018-03-07T08:55:21.822Z,65.07
2018-03-07T08:56:26.271Z,60.30
2018-03-07T08:57:30.723Z,58.83
2018-03-07T08:58:35.169Z,58.33
2018-03-07T08:59:39.606Z,55.25
2018-03-07T09:00:44.110Z,54.70
2018-03-07T09:01:48.586Z,61.30
2018-03-07T09:02:53.042Z,59.08
2018-03-07T09:03:57.504Z,51.80
2018-03-07T09:05:01.951Z,53.58
2018-03-07T09:06:06.432Z,61.63
2018-03-07T09:07:10.909Z,60.28
2018-03-07T09:08:16.150Z,58.10
2018-03-07T09:09:21.362Z,58.75
2018-03-07T09:10:26.578Z,61.22
2018-03-07T09:11:31.041Z,63.38
2018-03-07T09:12:35.518Z,60.60
2018-03-07T09:13:40.731Z,64.70
2018-03-07T09:14:45.958Z,61.22
2018-03-07T09:15:50.412Z,55.70
2018-03-07T09:16:54.914Z,59.38
2018-03-07T09:17:59.361Z,59.20
2018-03-07T09:19:03.811Z,64.82
2018-03-07T09:20:08.274Z,65.70
2018-03-07T09:21:12.731Z,60.42
2018-03-07T09:22:17.198Z,64.68
2018-03-07T09:23:21.656Z,66.72
2018-03-07T09:24:26.103Z,75.97
2018-03-07T09:25:30.579Z,68.22
2018-03-07T09:26:35.017Z,64.18
2018-03-07T09:27:39.490Z,70.62
2018-03-07T09:28:44.732Z,69.03
2018-03-07T09:29:49.182Z,74.85
2018-03-07T09:30:53.641Z,74.32
2018-03-07T09:31:59.223Z,70.75
2018-03-07T09:33:03.683Z,70.43
2018-03-07T09:34:08.138Z,76.82
2018-03-07T09:35:12.600Z,72.90
2018-03-07T09:36:16.722Z,71.72
2018-03-07T09:37:21.951Z,70.62
2018-03-07T09:38:26.453Z,71.93
2018-03-07T09:39:30.951Z,72.95
2018-03-07T09:40:35.459Z,75.95
2018-03-07T09:41:39.956Z,74.37
2018-03-07T09:42:44.412Z,73.50
2018-03-07T09:43:48.940Z,71.22
2018-03-07T09:44:53.414Z,74.70
2018-03-07T09:45:57.878Z,72.00
2018-03-07T09:47:02.325Z,76.37
2018-03-07T09:48:06.773Z,76.93
2018-03-07T09:49:12.023Z,83.47
2018-03-07T09:50:16.486Z,81.47
2018-03-07T09:51:20.935Z,76.95
2018-03-07T09:52:26.167Z,77.70
2018-03-07T09:53:31.401Z,77.20
2018-03-07T09:54:35.882Z,77.50
2018-03-07T09:55:40.375Z,74.25
2018-03-07T09:56:44.857Z,71.72
2018-03-07T09:57:49.317Z,81.97
2018-03-07T09:58:53.782Z,75.70
2018-03-07T09:59:58.257Z,86.63
2018-03-07T10:01:02.718Z,76.37
2018-03-07T10:02:07.207Z,82.25
2018-03-07T10:03:12.630Z,82.85
2018-03-07T10:04:17.860Z,80.97
2018-03-07T10:05:22.336Z,80.12
2018-03-07T10:06:27.553Z,81.50
2018-03-07T10:07:32.004Z,84.85
2018-03-07T10:08:37.232Z,76.78
2018-03-07T10:09:42.456Z,85.65
2018-03-07T10:10:47.710Z,79.07
2018-03-07T10:11:52.159Z,87.75
2018-03-07T10:12:56.623Z,81.22
2018-03-07T10:14:01.093Z,84.00
2018-03-07T10:15:05.531Z,86.97
2018-03-07T10:16:10.761Z,87.28
2018-03-07T10:17:15.994Z,89.70
2018-03-07T10:18:20.531Z,81.87
2018-03-07T10:19:24.990Z,85.87
2018-03-07T10:20:29.442Z,93.75
2018-03-07T10:21:34.686Z,95.47
2018-03-07T10:22:39.147Z,88.10
2018-03-07T10:23:43.628Z,91.47
2018-03-07T10:24:48.095Z,91.37
2018-03-07T10:25:52.558Z,96.90
2018-03-07T10:26:57.130Z,92.72
2018-03-07T10:28:01.577Z,95.32
2018-03-07T10:29:06.043Z,95.32
2018-03-07T10:30:10.505Z,92.47
2018-03-07T10:31:14.989Z,96.60
2018-03-07T10:32:19.481Z,102.65
2018-03-07T10:33:26.689Z,104.43
2018-03-07T10:34:31.134Z,95.05
2018-03-07T10:35:36.169Z,101.95
2018-03-07T10:36:41.418Z,100.12
2018-03-07T10:37:45.984Z,99.72
2018-03-07T10:38:50.421Z,103.07
2018-03-07T10:39:55.647Z,99.05
2018-03-07T10:41:00.877Z,108.05
2018-03-07T10:42:06.136Z,113.28
2018-03-07T10:43:10.617Z,98.35
2018-03-07T10:44:15.932Z,98.68
2018-03-07T10:45:20.399Z,101.93
2018-03-07T10:46:24.866Z,106.93
2018-03-07T10:47:30.164Z,104.90
2018-03-07T10:48:34.636Z,102.05
2018-03-07T10:49:39.134Z,109.10
2018-03-07T10:50:44.382Z,101.62
2018-03-07T10:51:48.854Z,108.50
2018-03-07T10:52:54.968Z,106.95
2018-03-07T10:53:59.482Z,100.20
2018-03-07T10:55:03.966Z,103.57
2018-03-07T10:56:08.426Z,107.80
2018-03-07T10:57:12.908Z,107.20
2018-03-07T10:58:17.397Z,108.70
2018-03-07T10:59:21.934Z,110.78
2018-03-07T11:00:31.968Z,106.65
2018-03-07T11:01:36.432Z,105.60
2018-03-07T11:02:40.916Z,99.45
2018-03-07T11:03:45.383Z,104.43
2018-03-07T11:04:49.915Z,109.78
2018-03-07T11:05:54.389Z,107.28
2018-03-07T11:06:59.639Z,109.70
2018-03-07T11:08:04.401Z,109.10
2018-03-07T11:09:08.889Z,107.35
2018-03-07T11:10:13.390Z,115.30
2018-03-07T11:11:17.868Z,113.80
2018-03-07T11:12:22.378Z,114.15
2018-03-07T11:13:27.627Z,117.20
2018-03-07T11:14:32.870Z,110.93
2018-03-07T11:15:38.306Z,114.60
2018-03-07T11:16:42.788Z,114.62
2018-03-07T11:17:48.026Z,108.75
2018-03-07T11:18:52.504Z,118.80
2018-03-07T11:19:56.978Z,114.80
2018-03-07T11:21:01.497Z,110.65
2018-03-07T11:22:05.966Z,116.57
2018-03-07T11:23:10.435Z,118.37
2018-03-07T11:24:14.914Z,112.65
2018-03-07T11:25:19.847Z,113.95
2018-03-07T11:26:24.319Z,112.18
2018-03-07T11:27:29.324Z,112.03
2018-03-07T11:28:33.835Z,116.45
2018-03-07T11:29:38.485Z,115.93
2018-03-07T11:30:42.945Z,115.47
2018-03-07T11:31:47.472Z,125.82
2018-03-07T11:32:51.942Z,118.05
2018-03-07T11:33:56.414Z,123.38
2018-03-07T11:35:01.646Z,122.22
2018-03-07T11:36:06.914Z,119.75
2018-03-07T11:37:11.423Z,114.10
2018-03-07T11:38:15.904Z,120.47
2018-03-07T11:39:21.128Z,124.93
2018-03-07T11:40:26.374Z,122.25
2018-03-07T11:41:30.842Z,117.70
2018-03-07T11:42:35.317Z,120.78
2018-03-07T11:43:39.662Z,119.60
2018-03-07T11:44:44.123Z,116.45
2018-03-07T11:45:48.896Z,115.68
2018-03-07T11:46:53.354Z,117.62
2018-03-07T11:47:57.837Z,118.85
2018-03-07T11:49:03.062Z,124.85
2018-03-07T11:50:07.559Z,113.45
2018-03-07T11:51:12.039Z,115.18
2018-03-07T11:52:16.525Z,109.18
2018-03-07T11:53:21.010Z,109.65
2018-03-07T11:54:25.505Z,116.10
2018-03-07T11:55:30.016Z,115.90
2018-03-07T11:56:34.509Z,114.88
2018-03-07T11:57:38.969Z,106.12
2018-03-07T11:58:44.081Z,110.18
2018-03-07T11:59:48.561Z,114.82
2018-03-07T12:00:53.020Z,108.35
2018-03-07T12:01:58.245Z,108.00
2018-03-07T12:03:03.477Z,112.25
2018-03-07T12:04:08.742Z,121.45
2018-03-07T12:05:13.214Z,110.37
2018-03-07T12:06:18.468Z,106.35
2018-03-07T12:07:22.921Z,109.28
2018-03-07T12:08:27.410Z,110.75
2018-03-07T12:09:31.875Z,107.15
2018-03-07T12:10:37.106Z,119.57
2018-03-07T12:11:42.353Z,113.30
2018-03-07T12:12:46.849Z,117.03
2018-03-07T12:13:51.306Z,111.82
2018-03-07T12:14:55.798Z,125.82
2018-03-07T12:16:00.254Z,111.93
2018-03-07T12:17:04.407Z,110.85
2018-03-07T12:18:08.940Z,108.95
2018-03-07T12:19:13.993Z,113.45
2018-03-07T12:20:19.401Z,115.45
2018-03-07T12:21:23.851Z,108.20
2018-03-07T12:22:28.323Z,117.07
2018-03-07T12:23:32.783Z,117.37
2018-03-07T12:24:38.064Z,114.05
2018-03-07T12:25:42.547Z,115.45
2018-03-07T12:26:47.036Z,113.85
2018-03-07T12:27:51.513Z,113.97
2018-03-07T12:28:55.963Z,109.80
2018-03-07T12:30:01.207Z,124.07
2018-03-07T12:31:06.485Z,111.22
2018-03-07T12:32:10.949Z,117.75
2018-03-07T12:33:16.198Z,116.10
2018-03-07T12:34:20.709Z,110.57
2018-03-07T12:35:25.208Z,115.25
2018-03-07T12:36:29.699Z,110.57
2018-03-07T12:37:34.938Z,113.93
2018-03-07T12:38:40.174Z,114.72
2018-03-07T12:39:44.643Z,116.40
2018-03-07T12:40:49.097Z,113.05
2018-03-07T12:41:54.466Z,108.60
2018-03-07T12:42:58.926Z,116.22
2018-03-07T12:44:04.520Z,114.75
2018-03-07T12:45:09.015Z,120.07
2018-03-07T12:46:13.531Z,118.15
2018-03-07T12:47:18.022Z,123.55
2018-03-07T12:48:22.482Z,116.70
2018-03-07T12:49:26.971Z,117.32
2018-03-07T12:50:31.460Z,118.25
2018-03-07T12:51:37.045Z,116.57
2018-03-07T12:52:42.122Z,114.78
2018-03-07T12:53:46.590Z,123.62
2018-03-07T12:54:51.049Z,121.05
2018-03-07T12:55:55.852Z,114.43
2018-03-07T12:57:00.334Z,120.87
2018-03-07T12:58:05.317Z,117.85
2018-03-07T12:59:09.794Z,113.20
2018-03-07T13:00:15.044Z,121.10
2018-03-07T13:01:19.702Z,125.43
2018-03-07T13:02:25.078Z,121.53
2018-03-07T13:03:29.649Z,130.87
2018-03-07T13:04:34.298Z,124.28
2018-03-07T13:05:38.766Z,116.10
2018-03-07T13:06:43.257Z,119.47
2018-03-07T13:07:47.726Z,122.68
2018-03-07T13:08:52.421Z,123.38
2018-03-07T13:09:58.622Z,121.65
2018-03-07T13:11:03.098Z,115.35
2018-03-07T13:12:07.797Z,114.95
2018-03-07T13:13:12.960Z,125.95
2018-03-07T13:14:18.356Z,126.47
2018-03-07T13:15:22.971Z,126.90
2018-03-07T13:16:27.498Z,116.32
2018-03-07T13:17:33.328Z,117.57
2018-03-07T13:18:38.584Z,114.37
2018-03-07T13:19:43.834Z,123.87
2018-03-07T13:20:48.400Z,119.22
2018-03-07T13:21:53.039Z,118.15
2018-03-07T13:22:58.288Z,108.78
2018-03-07T13:24:03.779Z,115.62
2018-03-07T13:25:08.395Z,112.90
2018-03-07T13:26:13.115Z,127.72
2018-03-07T13:27:17.598Z,121.20
2018-03-07T13:28:22.079Z,112.18
2018-03-07T13:29:26.544Z,111.75
2018-03-07T13:30:31.033Z,113.22
2018-03-07T13:31:36.094Z,123.03
2018-03-07T13:32:40.576Z,118.60
2018-03-07T13:33:45.057Z,113.93
2018-03-07T13:34:49.545Z,115.28
2018-03-07T13:35:55.068Z,115.28
2018-03-07T13:37:01.172Z,116.37
2018-03-07T13:38:05.638Z,120.93
2018-03-07T13:39:10.957Z,111.30
2018-03-07T13:40:17.103Z,119.72
2018-03-07T13:41:21.659Z,108.45
2018-03-07T13:42:26.429Z,113.53
2018-03-07T13:43:31.803Z,126.68
2018-03-07T13:44:36.283Z,116.43
2018-03-07T13:45:43.163Z,116.43
2018-03-07T13:46:47.666Z,111.05
2018-03-07T13:47:52.140Z,115.47